Time;durP1;ratioP1;P1;durP2;ratioP2;P2;SDS_P1;SDS_P2;PMS_P1;PMS_P2;Temp;Humidity;BMP_temperature;BMP_pressure;BME280_temperature;BME280_humidity;BME280_pressure;Samples;Min_cycle;Max_cycle;Signal;HPM_P1;HPM_P2
2021/06/10 00:02:19;;;;;;;5.50;3.90;;;;;;;21.79;52.46;99245.28;5072893;28;20086;-75
2021/06/10 00:04:44;;;;;;;4.15;3.75;;;;;;;21.41;52.31;99193.41;5072830;28;20099;-75
2021/06/10 00:07:11;;;;;;;4.68;3.60;;;;;;;21.89;52.41;99245.38;5072806;28;20035;-75
2021/06/10 00:09:36;;;;;;;4.90;4.32;;;;;;;21.16;52.24;99123.38;5072109;28;20409;-76
2021/06/10 00:12:03;;;;;;;4.55;4.15;;;;;;;21.89;52.18;99232.72;5070954;28;20031;-75
2021/06/10 00:14:28;;;;;;;4.55;3.67;;;;;;;21.84;52.25;99229.19;5071209;28;20493;-74
2021/06/10 00:16:53;;;;;;;4.78;4.18;;;;;;;21.48;52.12;99172.50;5072553;28;20031;-75
2021/06/10 00:19:19;;;;;;;6.63;4.10;;;;;;;21.78;52.11;99217.63;5072957;28;20031;-75
2021/06/10 00:21:45;;;;;;;5.07;3.70;;;;;;;21.85;52.18;99225.44;5073355;28;20024;-76
2021/06/10 00:24:10;;;;;;;4.35;3.90;;;;;;;21.46;52.14;99174.66;5072244;28;20362;-75
2021/06/10 00:26:36;;;;;;;4.28;3.88;;;;;;;21.48;52.20;99166.34;5072352;28;20028;-76
2021/06/10 00:29:02;;;;;;;7.00;4.32;;;;;;;21.32;52.38;99157.34;5072341;28;20028;-76
2021/06/10 00:31:27;;;;;;;6.55;4.13;;;;;;;21.42;52.31;99195.03;5072140;28;20408;-75
2021/06/10 00:33:53;;;;;;;5.28;3.70;;;;;;;21.37;52.21;99165.44;5072261;28;20031;-75
2021/06/10 00:36:18;;;;;;;5.60;4.10;;;;;;;21.71;52.33;99222.41;5072047;28;20504;-75
2021/06/10 00:38:45;;;;;;;4.38;4.00;;;;;;;21.58;52.52;99200.53;5072071;28;20481;-75
2021/06/10 00:41:11;;;;;;;5.13;4.32;;;;;;;21.10;52.60;99127.91;5071909;28;20060;-75
2021/06/10 00:43:36;;;;;;;5.03;4.20;;;;;;;21.50;52.69;99183.00;5070761;28;20043;-75
2021/06/10 00:46:02;;;;;;;5.22;4.45;;;;;;;21.35;52.80;99162.22;5071825;28;20059;-75
2021/06/10 00:48:27;;;;;;;5.15;4.57;;;;;;;21.29;52.65;99151.69;5072042;28;20078;-75
2021/06/10 00:50:53;;;;;;;5.60;4.63;;;;;;;21.30;52.93;99166.72;5071826;28;20028;-75
2021/06/10 00:53:22;;;;;;;4.72;4.07;;;;;;;21.12;53.12;99138.38;5072075;28;20091;-74
2021/06/10 00:55:53;;;;;;;7.07;4.70;;;;;;;21.49;53.28;99192.13;5071672;28;20106;-75
2021/06/10 00:58:20;;;;;;;5.22;4.70;;;;;;;21.48;53.20;99183.25;5071544;28;20035;-75
2021/06/10 01:00:46;;;;;;;5.57;4.55;;;;;;;21.62;53.27;99204.34;5071716;28;20410;-76
2021/06/10 01:03:11;;;;;;;6.07;4.55;;;;;;;21.57;53.42;99202.41;5071650;28;20024;-75
2021/06/10 01:05:39;;;;;;;5.47;4.10;;;;;;;21.44;53.43;99181.34;5071802;28;20032;-75
2021/06/10 01:08:29;;;;;;;6.45;4.65;;;;;;;21.62;53.72;99202.47;5071672;28;20085;-75
2021/06/10 01:10:58;;;;;;;5.03;4.60;;;;;;;21.61;53.57;99197.34;5070262;28;20067;-74
2021/06/10 01:14:01;;;;;;;5.30;4.75;;;;;;;21.59;53.80;99199.47;5071766;28;20028;-75
2021/06/10 01:16:29;;;;;;;6.03;4.75;;;;;;;21.30;53.66;99147.94;5070363;28;20052;-75
2021/06/10 01:18:58;;;;;;;5.32;4.82;;;;;;;21.21;53.67;99132.28;5070378;28;20029;-76
2021/06/10 01:21:25;;;;;;;6.85;4.57;;;;;;;21.33;53.71;99147.44;5071523;28;20024;-74
2021/06/10 01:23:50;;;;;;;5.68;5.05;;;;;;;21.64;53.80;99186.88;5071599;28;20047;-75
2021/06/10 01:26:44;;;;;;;6.32;5.03;;;;;;;21.62;54.17;99186.34;5071623;28;20497;-75
2021/06/10 01:29:16;;;;;;;5.80;5.20;;;;;;;21.44;53.52;99167.91;5071432;28;20021;-75
2021/06/10 01:31:42;;;;;;;7.47;5.32;;;;;;;21.38;53.78;99144.78;5071530;28;20032;-75
2021/06/10 01:34:10;;;;;;;7.30;5.60;;;;;;;21.02;54.24;99106.09;5071528;28;20031;-75
2021/06/10 01:36:40;;;;;;;8.48;5.35;;;;;;;21.44;54.26;99184.03;5071803;28;20107;-75
2021/06/10 01:39:10;;;;;;;5.18;4.68;;;;;;;21.44;54.38;99192.91;5071142;28;20033;-74
2021/06/10 01:41:37;;;;;;;7.05;5.15;;;;;;;21.45;54.39;99181.09;5071245;28;20028;-75
2021/06/10 01:44:04;;;;;;;5.65;5.15;;;;;;;20.96;54.65;99109.78;5071580;28;20108;-74
2021/06/10 01:46:32;;;;;;;6.30;5.30;;;;;;;21.30;54.61;99169.41;5071140;28;20028;-74
2021/06/10 01:48:59;;;;;;;5.50;5.00;;;;;;;21.32;54.84;99173.47;5071223;28;20052;-75
2021/06/10 01:51:27;;;;;;;5.15;4.55;;;;;;;21.08;55.02;99139.94;5071134;28;20037;-74
2021/06/10 01:53:55;;;;;;;8.68;5.97;;;;;;;21.34;55.06;99174.03;5069610;28;20032;-74
2021/06/10 01:56:23;;;;;;;5.80;5.20;;;;;;;21.35;54.99;99175.63;5069649;28;20417;-74
2021/06/10 01:58:51;;;;;;;5.90;5.03;;;;;;;20.95;54.98;99100.94;5071143;28;20501;-73
2021/06/10 02:01:18;;;;;;;8.40;5.00;;;;;;;21.40;54.62;99178.38;5071241;28;20021;-75
2021/06/10 02:03:46;;;;;;;5.95;4.53;;;;;;;21.14;54.62;99136.25;5071991;28;20020;-75
2021/06/10 02:06:12;;;;;;;5.68;5.18;;;;;;;20.99;54.63;99117.34;5071931;28;20432;-75
2021/06/10 02:08:39;;;;;;;7.45;5.20;;;;;;;21.31;54.39;99179.91;5071021;28;20031;-74
2021/06/10 02:11:05;;;;;;;4.95;4.50;;;;;;;21.22;54.61;99165.31;5070737;28;20052;-74
2021/06/10 02:13:33;;;;;;;5.10;4.60;;;;;;;21.24;54.19;99166.69;5070732;28;20497;-74
2021/06/10 02:16:07;;;;;;;7.55;4.70;;;;;;;21.34;54.45;99192.00;5070845;28;20033;-74
2021/06/10 02:18:33;;;;;;;4.90;4.35;;;;;;;21.03;54.37;99162.19;5071161;28;20052;-76
2021/06/10 02:21:03;;;;;;;5.00;4.47;;;;;;;20.79;54.22;99113.38;5071182;28;20057;-75
2021/06/10 02:23:30;;;;;;;5.32;4.82;;;;;;;21.21;54.33;99185.16;5070731;28;20016;-75
2021/06/10 02:25:55;;;;;;;5.53;4.82;;;;;;;20.94;54.22;99139.56;5070831;28;20029;-75
2021/06/10 02:28:21;;;;;;;6.07;4.70;;;;;;;21.15;54.17;99184.31;5071143;28;20127;-75
2021/06/10 02:30:47;;;;;;;6.65;4.78;;;;;;;20.58;54.20;99100.84;5071020;28;20028;-75
2021/06/10 02:33:12;;;;;;;5.95;4.55;;;;;;;21.05;54.45;99184.22;5071241;28;20024;-76
2021/06/10 02:35:38;;;;;;;4.82;4.43;;;;;;;21.01;54.22;99176.94;5074085;28;20036;-76
2021/06/10 02:38:04;;;;;;;4.82;4.32;;;;;;;21.12;54.26;99182.13;5074224;28;20025;-76
2021/06/10 02:40:37;;;;;;;5.50;4.80;;;;;;;21.05;54.24;99173.50;5074156;28;20048;-76
2021/06/10 02:43:05;;;;;;;6.78;4.38;;;;;;;21.14;54.04;99184.56;5074195;28;20039;-76
2021/06/10 02:45:32;;;;;;;7.10;4.57;;;;;;;21.06;54.31;99182.34;5074253;28;20016;-76
2021/06/10 02:48:00;;;;;;;4.68;4.28;;;;;;;20.92;54.15;99160.50;5074183;28;20035;-75
2021/06/10 02:50:27;;;;;;;8.90;5.10;;;;;;;21.14;54.04;99179.19;5074120;28;20386;-73
2021/06/10 02:52:54;;;;;;;5.75;4.07;;;;;;;20.82;54.23;99129.00;5072713;28;20461;-76
2021/06/10 02:55:20;;;;;;;6.38;4.82;;;;;;;21.06;53.96;99161.69;5074156;28;20504;-76
2021/06/10 02:57:52;;;;;;;4.70;4.28;;;;;;;21.16;53.77;99171.69;5074125;28;20029;-72
2021/06/10 03:00:19;;;;;;;5.30;4.20;;;;;;;21.14;53.73;99168.47;5073957;28;20021;-77
2021/06/10 03:02:48;;;;;;;5.13;4.68;;;;;;;21.16;53.71;99180.56;5073954;28;20033;-75
2021/06/10 03:05:14;;;;;;;6.22;4.78;;;;;;;21.17;53.80;99171.44;5073953;28;20033;-75
2021/06/10 03:07:39;;;;;;;4.57;4.18;;;;;;;21.04;53.56;99149.59;5073717;28;20035;-75
2021/06/10 03:10:08;;;;;;;5.18;4.60;;;;;;;21.26;53.62;99182.56;5073802;28;20024;-76
2021/06/10 03:12:35;;;;;;;6.28;4.47;;;;;;;21.13;53.66;99148.84;5073755;28;20481;-75
2021/06/10 03:15:01;;;;;;;6.32;4.15;;;;;;;21.13;53.47;99156.09;5073792;28;20485;-76
2021/06/10 03:17:27;;;;;;;7.40;4.43;;;;;;;20.66;53.46;99091.53;5073741;28;20032;-76
2021/06/10 03:19:54;;;;;;;5.65;4.93;;;;;;;21.00;53.59;99153.84;5073778;28;20021;-76
2021/06/10 03:22:20;;;;;;;5.72;4.75;;;;;;;21.27;53.40;99178.81;5072209;28;20024;-76
2021/06/10 03:24:46;;;;;;;5.68;4.93;;;;;;;21.28;53.38;99180.41;5073505;28;20484;-74
2021/06/10 03:27:13;;;;;;;7.88;4.80;;;;;;;21.42;53.25;99196.91;5073825;28;20116;-76
2021/06/10 03:29:40;;;;;;;5.10;4.60;;;;;;;21.27;53.37;99176.13;5073462;28;20050;-74
2021/06/10 03:32:06;;;;;;;8.55;4.53;;;;;;;21.19;53.31;99157.75;5073449;28;20436;-75
2021/06/10 03:34:33;;;;;;;7.82;4.80;;;;;;;21.21;53.31;99158.31;5073608;28;20037;-75
2021/06/10 03:37:02;;;;;;;7.03;5.05;;;;;;;20.98;53.22;99121.88;5072119;28;20418;-75
2021/06/10 03:39:29;;;;;;;5.93;4.97;;;;;;;21.04;53.39;99136.97;5073272;28;20529;-76
2021/06/10 03:41:55;;;;;;;8.10;5.10;;;;;;;21.48;53.26;99202.06;5073088;28;20029;-76
2021/06/10 03:44:23;;;;;;;13.40;4.93;;;;;;;21.47;53.34;99199.63;5072227;28;20033;-76
2021/06/10 03:46:49;;;;;;;6.57;4.78;;;;;;;21.40;53.37;99194.47;5072803;28;20020;-76
2021/06/10 03:49:15;;;;;;;5.38;4.30;;;;;;;20.80;53.24;99085.50;5073436;28;20047;-75
2021/06/10 03:51:41;;;;;;;7.03;4.72;;;;;;;21.49;53.27;99194.81;5073262;28;20447;-76
2021/06/10 03:54:07;;;;;;;7.82;4.55;;;;;;;21.39;53.46;99174.06;5072823;28;20029;-75
2021/06/10 03:56:33;;;;;;;7.40;4.80;;;;;;;21.49;53.16;99192.94;5072756;28;20078;-75
2021/06/10 03:58:58;;;;;;;6.28;5.10;;;;;;;21.53;53.25;99202.09;5072782;28;20025;-75
2021/06/10 04:01:24;;;;;;;6.28;4.55;;;;;;;21.25;53.21;99152.22;5072850;28;20546;-75
2021/06/10 04:03:49;;;;;;;5.70;4.50;;;;;;;21.28;53.19;99150.06;5071751;28;20039;-75
2021/06/10 04:06:16;;;;;;;6.25;4.40;;;;;;;21.47;53.18;99176.25;5072763;28;20086;-76
2021/06/10 04:08:42;;;;;;;7.35;4.40;;;;;;;21.64;52.89;99196.81;5072816;28;20024;-77
2021/06/10 04:11:08;;;;;;;5.95;4.50;;;;;;;21.64;52.94;99194.13;5072331;28;20039;-77
2021/06/10 04:13:33;;;;;;;8.80;4.45;;;;;;;21.00;52.91;99092.13;5071031;28;20020;-76
2021/06/10 04:15:59;;;;;;;4.97;4.40;;;;;;;21.03;52.97;99115.75;5071180;28;20024;-76
2021/06/10 04:18:24;;;;;;;7.75;4.30;;;;;;;21.07;52.93;99108.81;5072695;28;20016;-76
2021/06/10 04:20:51;;;;;;;4.38;3.97;;;;;;;21.45;52.59;99180.28;5072441;28;20016;-76
2021/06/10 04:23:18;;;;;;;5.72;3.75;;;;;;;21.66;52.95;99210.81;5072688;28;20020;-76
2021/06/10 04:25:44;;;;;;;7.18;4.57;;;;;;;21.39;52.73;99149.88;5072388;28;20025;-75
2021/06/10 04:28:09;;;;;;;6.65;3.60;;;;;;;21.43;52.53;99152.88;5072256;28;20477;-77
2021/06/10 04:30:34;;;;;;;7.07;3.63;;;;;;;21.56;52.53;99196.25;5072205;28;20029;-76
2021/06/10 04:33:00;;;;;;;6.47;3.53;;;;;;;21.42;52.70;99162.81;5071056;28;20085;-75
2021/06/10 04:35:25;;;;;;;5.88;4.25;;;;;;;20.98;52.70;99094.25;5072239;28;20032;-75
2021/06/10 04:37:51;;;;;;;5.43;3.70;;;;;;;21.26;52.54;99131.53;5072028;28;20024;-76
2021/06/10 04:40:18;;;;;;;6.22;3.83;;;;;;;21.15;52.46;99109.13;5071812;28;20028;-75
2021/06/10 04:42:43;;;;;;;4.43;3.95;;;;;;;21.20;52.72;99116.41;5071826;28;20028;-76
2021/06/10 04:45:10;;;;;;;5.88;3.60;;;;;;;21.13;52.67;99107.78;5071926;28;20414;-76
2021/06/10 04:47:35;;;;;;;5.25;3.90;;;;;;;21.72;52.35;99199.03;5071902;28;20035;-74
2021/06/10 04:50:01;;;;;;;6.32;4.25;;;;;;;21.64;52.67;99175.34;5071471;28;20032;-76
2021/06/10 04:52:27;;;;;;;4.10;3.70;;;;;;;21.47;52.71;99157.47;5071731;28;20035;-76
2021/06/10 04:54:52;;;;;;;4.70;3.70;;;;;;;21.58;52.74;99184.44;5073836;28;20462;-76
2021/06/10 04:57:17;;;;;;;4.07;3.53;;;;;;;21.64;52.75;99178.03;5075310;28;20043;-75
2021/06/10 04:59:43;;;;;;;6.80;4.20;;;;;;;21.72;52.76;99189.09;5086556;28;20019;-76
2021/06/10 05:02:08;;;;;;;4.22;3.85;;;;;;;21.19;52.73;99104.88;5091904;28;20562;-75
2021/06/10 05:04:35;;;;;;;6.03;4.30;;;;;;;21.81;52.78;99202.84;5082408;28;20428;-76
2021/06/10 05:07:00;;;;;;;4.43;3.80;;;;;;;21.69;52.90;99178.84;5072972;28;20086;-75
2021/06/10 05:09:25;;;;;;;4.05;3.65;;;;;;;21.47;52.86;99141.34;5071438;28;20024;-75
2021/06/10 05:11:51;;;;;;;4.35;3.92;;;;;;;21.38;52.89;99136.72;5087357;28;20028;-75
2021/06/10 05:14:18;;;;;;;4.15;3.55;;;;;;;21.60;52.97;99156.22;5071356;28;20028;-75
2021/06/10 05:16:47;;;;;;;4.35;3.80;;;;;;;21.59;53.05;99167.25;5071590;28;20025;-75
2021/06/10 05:19:12;;;;;;;5.30;4.00;;;;;;;21.81;53.18;99200.97;5071537;28;20029;-74
2021/06/10 05:21:38;;;;;;;6.35;4.22;;;;;;;21.93;53.19;99200.75;5072295;28;20021;-74
2021/06/10 05:24:04;;;;;;;6.25;4.00;;;;;;;21.72;53.05;99162.22;5079857;28;20024;-76
2021/06/10 05:26:30;;;;;;;7.03;4.63;;;;;;;22.05;53.15;99205.97;5091520;28;20047;-76
2021/06/10 05:28:55;;;;;;;7.93;4.63;;;;;;;22.02;52.82;99180.38;5079979;28;20029;-75
2021/06/10 05:31:22;;;;;;;4.95;4.30;;;;;;;22.01;52.77;99184.16;5077833;28;20035;-75
2021/06/10 05:33:50;;;;;;;6.75;4.05;;;;;;;21.67;52.74;99129.94;5079572;28;20447;-75
2021/06/10 05:36:15;;;;;;;6.10;4.15;;;;;;;22.17;52.58;99201.19;5089440;28;20035;-75
2021/06/10 05:38:40;;;;;;;6.47;4.22;;;;;;;21.81;52.67;99163.34;5071714;28;20035;-75
2021/06/10 05:41:06;;;;;;;6.72;4.40;;;;;;;22.09;52.71;99207.06;5075028;28;20024;-75
2021/06/10 05:43:32;;;;;;;4.93;4.40;;;;;;;21.88;52.61;99160.41;5076698;28;20386;-75
2021/06/10 05:45:57;;;;;;;5.10;3.53;;;;;;;21.86;52.54;99141.88;5068422;28;20030;-74
2021/06/10 05:48:22;;;;;;;4.68;4.28;;;;;;;21.80;52.52;99136.72;5082340;28;20051;-74
2021/06/10 05:50:48;;;;;;;6.18;4.72;;;;;;;22.39;52.46;99203.72;5086056;28;20099;-73
2021/06/10 05:53:17;;;;;;;4.97;3.90;;;;;;;22.34;52.22;99201.84;5071566;28;20058;-73
2021/06/10 05:55:45;;;;;;;5.80;5.20;;;;;;;22.41;52.09;99212.34;5097584;28;20027;-74
2021/06/10 05:58:11;;;;;;;4.70;4.30;;;;;;;22.29;52.01;99191.03;5098176;28;20111;-72
2021/06/10 06:00:37;;;;;;;4.82;4.20;;;;;;;22.15;52.09;99173.75;5076309;28;20025;-75
2021/06/10 06:03:03;;;;;;;4.68;4.20;;;;;;;22.41;52.03;99193.50;5073631;28;20085;-76
2021/06/10 06:05:32;;;;;;;6.22;5.55;;;;;;;22.56;52.18;99207.03;5080795;28;20024;-76
2021/06/10 06:07:58;;;;;;;5.22;4.53;;;;;;;22.58;51.96;99201.38;5089248;28;20034;-75
2021/06/10 06:10:24;;;;;;;5.25;4.32;;;;;;;22.66;51.92;99195.47;5090395;28;20104;-75
2021/06/10 06:12:52;;;;;;;6.47;5.05;;;;;;;22.74;51.92;99201.16;5076192;28;20064;-76
2021/06/10 06:15:18;;;;;;;5.50;4.00;;;;;;;22.41;51.54;99142.41;5080007;28;20024;-75
2021/06/10 06:17:44;;;;;;;6.43;4.57;;;;;;;22.73;51.56;99190.66;5073207;28;20035;-75
2021/06/10 06:20:11;;;;;;;5.78;4.28;;;;;;;22.86;51.24;99192.84;5079433;28;20086;-75
2021/06/10 06:22:41;;;;;;;6.00;3.92;;;;;;;22.99;50.94;99205.78;5080433;28;20031;-76
2021/06/10 06:25:08;;;;;;;4.25;3.85;;;;;;;22.95;50.85;99188.56;5085169;28;20020;-75
2021/06/10 06:27:34;;;;;;;4.07;3.63;;;;;;;23.14;50.69;99205.03;5089016;28;20025;-76
2021/06/10 06:29:59;;;;;;;6.60;4.20;;;;;;;22.89;50.59;99169.97;5075868;28;20085;-78
2021/06/10 06:32:25;;;;;;;5.03;4.40;;;;;;;22.98;50.42;99171.88;5094565;28;20028;-76
2021/06/10 06:34:50;;;;;;;4.93;4.53;;;;;;;22.94;50.44;99169.97;5094592;28;20028;-76
2021/06/10 06:37:16;;;;;;;4.70;4.30;;;;;;;23.35;50.33;99213.94;5084651;28;20594;-76
2021/06/10 06:39:41;;;;;;;4.60;4.20;;;;;;;23.03;50.13;99153.03;5078830;28;20128;-73
2021/06/10 06:42:07;;;;;;;5.43;4.63;;;;;;;23.26;49.86;99188.59;5073874;28;20029;-77
2021/06/10 06:44:32;;;;;;;6.88;4.10;;;;;;;23.49;49.68;99224.97;5082061;28;20024;-74
2021/06/10 06:46:57;;;;;;;5.00;4.50;;;;;;;23.54;49.29;99233.88;5082391;28;20088;-74
2021/06/10 06:49:23;;;;;;;4.80;4.35;;;;;;;23.21;49.19;99167.88;5082633;28;20031;-74
2021/06/10 06:51:48;;;;;;;5.57;4.85;;;;;;;23.61;49.23;99220.16;5086923;28;20013;-74
2021/06/10 06:54:14;;;;;;;5.40;4.38;;;;;;;23.54;49.24;99200.72;5073832;28;20390;-74
2021/06/10 06:56:39;;;;;;;6.72;4.38;;;;;;;23.44;48.51;99198.84;5079280;28;20441;-74
2021/06/10 06:59:05;;;;;;;7.15;4.00;;;;;;;23.39;48.34;99164.63;5080368;28;20161;-73
2021/06/10 07:01:30;;;;;;;5.03;4.18;;;;;;;23.86;48.15;99238.19;5085157;28;20404;-74
2021/06/10 07:03:55;;;;;;;4.35;4.00;;;;;;;23.75;47.53;99210.41;5073701;28;20069;-75
2021/06/10 07:06:21;;;;;;;4.70;4.15;;;;;;;23.60;47.45;99180.78;5073635;28;20476;-73
2021/06/10 07:08:46;;;;;;;4.63;3.65;;;;;;;23.75;47.14;99192.34;5076794;28;20119;-74
2021/06/10 07:11:12;;;;;;;5.82;4.10;;;;;;;23.50;47.08;99143.06;5078690;28;20093;-75
2021/06/10 07:13:38;;;;;;;4.25;3.55;;;;;;;24.04;46.83;99230.34;5075655;28;20024;-73
2021/06/10 07:16:03;;;;;;;6.82;3.90;;;;;;;23.82;46.70;99184.00;5092990;28;20024;-74
2021/06/10 07:18:30;;;;;;;3.85;3.40;;;;;;;24.27;46.41;99244.34;5079905;28;20532;-75
2021/06/10 07:20:56;;;;;;;3.72;3.22;;;;;;;24.33;45.85;99248.63;5090288;28;20515;-76
2021/06/10 07:23:21;;;;;;;6.15;3.33;;;;;;;24.16;46.15;99202.25;5088316;28;20024;-75
2021/06/10 07:25:47;;;;;;;5.75;3.53;;;;;;;24.24;46.29;99213.28;5073132;28;20561;-75
2021/06/10 07:28:12;;;;;;;6.40;3.75;;;;;;;24.05;46.15;99186.09;5104176;28;20450;-74
2021/06/10 07:30:38;;;;;;;4.70;3.55;;;;;;;24.57;46.17;99254.22;5088963;28;20081;-72
2021/06/10 07:33:04;;;;;;;4.20;3.38;;;;;;;24.40;46.11;99214.06;5101142;28;20024;-73
2021/06/10 07:35:32;;;;;;;6.57;4.00;;;;;;;24.71;45.66;99249.84;5100133;28;20098;-73
2021/06/10 07:37:59;;;;;;;10.23;4.53;;;;;;;24.81;45.39;99257.91;5104155;28;20023;-73
2021/06/10 07:40:25;;;;;;;5.28;3.72;;;;;;;24.47;45.07;99184.06;5096435;28;20044;-74
2021/06/10 07:42:50;;;;;;;5.70;3.30;;;;;;;24.63;44.60;99205.34;5098751;28;20035;-73
2021/06/10 07:45:16;;;;;;;6.95;3.53;;;;;;;24.84;44.50;99243.03;5093476;28;20417;-73
2021/06/10 07:47:42;;;;;;;3.90;3.28;;;;;;;24.71;43.83;99199.34;5113278;28;20484;-74
2021/06/10 07:50:09;;;;;;;4.55;3.60;;;;;;;24.95;43.73;99231.06;5102374;28;20030;-74
2021/06/10 07:52:35;;;;;;;4.72;3.15;;;;;;;25.14;44.01;99260.97;5081697;28;20477;-73
2021/06/10 07:55:01;;;;;;;3.65;3.35;;;;;;;25.18;43.77;99256.63;5081851;28;20026;-74
2021/06/10 07:57:26;;;;;;;4.70;3.45;;;;;;;24.82;43.84;99197.41;5106253;28;20516;-74
2021/06/10 07:59:51;;;;;;;3.22;3.00;;;;;;;25.34;43.33;99255.44;5105444;28;20024;-75
2021/06/10 08:02:17;;;;;;;3.47;2.92;;;;;;;25.20;42.74;99238.22;5091304;28;20469;-75
2021/06/10 08:04:43;;;;;;;5.38;2.65;;;;;;;25.36;42.15;99241.66;5107060;28;20423;-74
2021/06/10 08:07:11;;;;;;;4.78;2.80;;;;;;;25.42;42.08;99249.44;5105769;28;20106;-74
2021/06/10 08:09:37;;;;;;;3.67;2.72;;;;;;;25.40;42.05;99240.81;5092532;28;20036;-74
2021/06/10 08:12:03;;;;;;;3.15;2.85;;;;;;;25.20;41.77;99212.03;5089412;28;20058;-72
2021/06/10 08:14:29;;;;;;;6.95;3.38;;;;;;;25.69;41.61;99267.09;5072212;28;20028;-73
2021/06/10 08:16:54;;;;;;;3.10;2.63;;;;;;;25.63;41.48;99244.66;5101860;28;20066;-73
2021/06/10 08:19:20;;;;;;;3.35;2.85;;;;;;;25.49;41.29;99211.28;5112755;28;20051;-76
2021/06/10 08:21:45;;;;;;;4.53;3.38;;;;;;;25.95;41.47;99271.19;5112718;28;20080;-74
2021/06/10 08:24:11;;;;;;;7.55;6.85;;;;;;;26.02;41.25;99273.56;5112611;28;20015;-73
2021/06/10 08:26:38;;;;;;;3.33;3.13;;;;;;;25.74;41.33;99227.28;5112686;28;20061;-72
2021/06/10 08:29:04;;;;;;;3.50;3.20;;;;;;;26.16;40.87;99275.31;5112470;28;20055;-74
2021/06/10 08:31:30;;;;;;;6.05;5.43;;;;;;;25.87;40.96;99215.81;5111620;28;20026;-74
2021/06/10 08:33:55;;;;;;;5.68;3.85;;;;;;;26.22;41.08;99257.13;5083323;28;20025;-74
2021/06/10 08:36:22;;;;;;;6.72;4.05;;;;;;;26.14;41.31;99236.09;5072796;28;20101;-73
2021/06/10 08:38:48;;;;;;;5.22;3.00;;;;;;;26.44;40.35;99260.16;5070135;28;20020;-73
2021/06/10 08:41:14;;;;;;;4.55;2.67;;;;;;;26.63;39.77;99287.25;5071699;28;20037;-74
2021/06/10 08:43:41;;;;;;;5.28;3.97;;;;;;;26.62;39.83;99245.03;5072156;28;20028;-74
2021/06/10 08:46:09;;;;;;;5.28;4.75;;;;;;;26.73;39.38;99229.44;5073345;28;20020;-74
2021/06/10 08:48:42;;;;;;;6.63;6.03;;;;;;;27.11;39.35;99269.06;5071266;28;20024;-74
2021/06/10 08:51:09;;;;;;;4.40;3.70;;;;;;;26.83;39.04;99230.16;5079168;28;20020;-74
2021/06/10 08:53:35;;;;;;;3.70;3.40;;;;;;;27.26;39.32;99270.75;5071293;28;20079;-74
2021/06/10 08:56:01;;;;;;;4.53;4.03;;;;;;;27.31;39.22;99256.31;5071299;28;20024;-73
2021/06/10 08:58:29;;;;;;;3.08;2.63;;;;;;;27.09;38.62;99222.47;5071516;28;20028;-74
2021/06/10 09:00:55;;;;;;;4.50;3.88;;;;;;;27.23;39.30;99257.78;5071345;28;20013;-75
2021/06/10 09:03:26;;;;;;;4.82;3.60;;;;;;;27.29;38.69;99267.44;5080445;28;20095;-75
2021/06/10 09:06:14;;;;;;;4.57;3.42;;;;;;;27.36;38.75;99245.38;5093750;28;20020;-74
2021/06/10 09:08:41;;;;;;;5.20;4.05;;;;;;;27.68;38.39;99250.06;5090199;28;20030;-73
2021/06/10 09:11:23;;;;;;;4.20;3.80;;;;;;;27.90;37.71;99247.50;5071422;28;20044;-76
2021/06/10 09:13:55;;;;;;;9.45;5.53;;;;;;;27.90;37.94;99233.13;5071108;28;20028;-76
2021/06/10 09:16:31;;;;;;;13.07;8.60;;;;;;;28.08;37.25;99253.94;5071307;28;20020;-76
2021/06/10 09:19:07;;;;;;;5.45;4.80;;;;;;;28.10;37.23;99252.53;5071221;28;20548;-73
2021/06/10 09:21:35;;;;;;;7.82;4.10;;;;;;;28.32;36.83;99246.47;5071245;28;20021;-74
2021/06/10 09:24:25;;;;;;;3.28;3.03;;;;;;;28.58;36.77;99245.94;5070955;28;20020;-73
2021/06/10 09:27:03;;;;;;;3.40;3.10;;;;;;;28.73;36.29;99243.72;5069882;28;20043;-76
2021/06/10 09:29:38;;;;;;;3.97;3.40;;;;;;;28.92;36.27;99250.94;5085766;28;20024;-76
2021/06/10 09:32:08;;;;;;;4.78;3.33;;;;;;;28.90;36.12;99220.53;5091155;28;20631;-76
2021/06/10 09:34:49;;;;;;;4.25;3.85;;;;;;;29.01;36.04;99211.06;5091036;28;20578;-76
2021/06/10 09:37:24;;;;;;;3.70;3.28;;;;;;;29.31;35.45;99244.91;5091164;28;20024;-76
2021/06/10 09:39:53;;;;;;;4.18;3.72;;;;;;;29.37;35.55;99239.03;5086869;28;20090;-73
2021/06/10 09:42:36;;;;;;;4.20;3.20;;;;;;;29.38;34.46;99207.19;5092285;28;20047;-76
2021/06/10 09:45:07;;;;;;;3.63;2.75;;;;;;;29.35;34.65;99195.00;5095507;28;20039;-75
2021/06/10 09:47:37;;;;;;;;;;;;;;;29.71;35.43;99235.75;5084092;28;20090;-74
2021/06/10 09:50:28;;;;;;;2.95;2.65;;;;;;;29.72;34.74;99176.69;5082582;28;19943;-74
2021/06/10 09:52:56;;;;;;;4.38;3.15;;;;;;;30.20;34.74;99230.41;5074957;28;20032;-74
2021/06/10 09:55:45;;;;;;;4.00;3.60;;;;;;;30.27;34.77;99233.47;5088884;28;20056;-74
2021/06/10 09:58:13;;;;;;;4.85;3.90;;;;;;;30.07;34.88;99229.41;5091370;28;20051;-74
2021/06/10 10:00:50;;;;;;;7.82;4.40;;;;;;;30.22;34.71;99214.56;5074871;28;20063;-73
2021/06/10 10:03:25;;;;;;;4.07;3.50;;;;;;;30.32;34.05;99217.00;5081009;28;20492;-75
2021/06/10 10:05:54;;;;;;;5.30;4.25;;;;;;;30.48;33.94;99209.22;5101749;28;20032;-74
2021/06/10 10:08:20;;;;;;;4.25;3.20;;;;;;;30.10;34.00;99162.63;5086607;28;20032;-74
2021/06/10 10:10:46;;;;;;;7.22;3.30;;;;;;;30.50;33.88;99213.22;5073149;28;20031;-76
2021/06/10 10:13:16;;;;;;;3.67;3.33;;;;;;;30.28;33.39;99154.19;5073721;28;20028;-74
2021/06/10 10:15:41;;;;;;;4.75;4.28;;;;;;;30.85;33.09;99203.19;5079871;28;20035;-73
2021/06/10 10:18:07;;;;;;;3.88;3.58;;;;;;;30.75;32.29;99170.81;5094404;28;20077;-72
2021/06/10 10:20:33;;;;;;;6.15;4.70;;;;;;;30.86;32.38;99172.09;5083688;28;20035;-75
2021/06/10 10:22:59;;;;;;;7.13;6.53;;;;;;;30.74;31.74;99143.88;5074559;28;20024;-76
2021/06/10 10:25:25;;;;;;;8.68;7.90;;;;;;;31.16;31.46;99191.34;5074133;28;20547;-74
2021/06/10 10:27:51;;;;;;;7.43;6.72;;;;;;;30.82;31.54;99154.75;5087179;28;20420;-73
2021/06/10 10:30:20;;;;;;;5.80;5.20;;;;;;;31.32;31.33;99184.28;5094423;28;20028;-74
2021/06/10 10:32:46;;;;;;;4.60;3.90;;;;;;;31.55;30.68;99184.88;5084363;28;20025;-76
2021/06/10 10:35:21;;;;;;;3.83;3.42;;;;;;;31.63;30.15;99189.50;5074287;28;20369;-75
2021/06/10 10:37:47;;;;;;;6.18;4.05;;;;;;;31.77;30.29;99184.66;5085565;28;20132;-73
2021/06/10 10:40:25;;;;;;;5.45;4.78;;;;;;;31.84;29.89;99173.25;5094073;28;20052;-73
2021/06/10 10:42:54;;;;;;;7.13;6.43;;;;;;;31.80;29.67;99175.03;5091430;28;20047;-73
2021/06/10 10:45:20;;;;;;;4.95;4.25;;;;;;;31.86;29.34;99162.78;5094056;28;20149;-73
2021/06/10 10:48:04;;;;;;;7.63;4.68;;;;;;;32.04;29.35;99175.25;5091120;28;20056;-72
2021/06/10 10:50:50;;;;;;;4.82;3.30;;;;;;;31.95;27.42;99163.56;5073968;28;20115;-75
2021/06/10 10:53:23;;;;;;;5.18;3.50;;;;;;;32.09;28.64;99164.16;5074042;28;20024;-76
2021/06/10 10:56:11;;;;;;;4.70;3.40;;;;;;;32.16;27.67;99137.13;5076513;28;20033;-73
2021/06/10 10:58:38;;;;;;;3.95;2.78;;;;;;;32.38;28.02;99166.09;5088902;28;20046;-75
2021/06/10 11:01:05;;;;;;;6.88;3.75;;;;;;;32.72;27.96;99162.34;5088744;28;20473;-73
2021/06/10 11:03:32;;;;;;;4.90;4.28;;;;;;;32.96;27.62;99158.94;5073537;28;20035;-74
2021/06/10 11:06:18;;;;;;;3.80;3.15;;;;;;;33.18;27.33;99161.31;5091340;28;20028;-73
2021/06/10 11:08:58;;;;;;;3.60;3.30;;;;;;;33.35;27.01;99154.06;5093300;28;20036;-73
2021/06/10 11:11:56;;;;;;;6.90;2.70;;;;;;;33.16;26.05;99146.34;5073351;28;20507;-74
2021/06/10 11:14:44;;;;;;;3.65;2.97;;;;;;;33.10;25.73;99147.72;5084736;28;20032;-73
2021/06/10 11:17:14;;;;;;;4.63;3.90;;;;;;;33.13;25.80;99103.25;5093483;28;20099;-74
2021/06/10 11:19:49;;;;;;;3.57;2.80;;;;;;;33.71;24.76;99147.88;5084414;28;20048;-75
2021/06/10 11:22:26;;;;;;;2.80;2.50;;;;;;;33.58;25.02;99140.81;5093653;28;20054;-76
2021/06/10 11:24:51;;;;;;;5.47;3.75;;;;;;;33.22;25.13;99084.00;5090272;28;20020;-74
2021/06/10 11:27:33;;;;;;;4.43;4.00;;;;;;;33.45;25.18;99102.47;5074528;28;20086;-73
2021/06/10 11:30:11;;;;;;;8.30;4.38;;;;;;;33.43;26.01;99077.34;5083346;28;20546;-74
2021/06/10 11:33:01;;;;;;;4.65;4.28;;;;;;;33.72;25.75;99114.69;5082709;28;20032;-75
2021/06/10 11:35:34;;;;;;;4.90;4.50;;;;;;;33.52;26.36;99131.22;5075063;28;20023;-72
2021/06/10 11:38:03;;;;;;;7.30;6.20;;;;;;;32.96;27.05;99126.13;5077070;28;20428;-75
2021/06/10 11:40:29;;;;;;;6.10;5.35;;;;;;;32.27;27.08;99101.25;5076702;28;20113;-74